sensor_id;sensor_type;location;lat;lon;timestamp;pressure;altitude;pressure_sealevel;temperature;humidity
40612;BME280;26317;44.894;20.286;2023-02-23T00:00:48;100695.97;;;9.21;69.17
40612;BME280;26317;44.894;20.286;2023-02-23T00:03:33;100697.56;;;9.17;69.71
40612;BME280;26317;44.894;20.286;2023-02-23T00:06:10;100705.84;;;9.15;70.50
40612;BME280;26317;44.894;20.286;2023-02-23T00:08:52;100700.50;;;9.15;70.99
40612;BME280;26317;44.894;20.286;2023-02-23T00:11:31;100702.09;;;9.16;71.55
40612;BME280;26317;44.894;20.286;2023-02-23T00:14:15;100684.66;;;9.09;72.01
40612;BME280;26317;44.894;20.286;2023-02-23T00:16:57;100636.53;;;8.77;72.01
40612;BME280;26317;44.894;20.286;2023-02-23T00:19:46;100696.78;;;9.21;71.94
40612;BME280;26317;44.894;20.286;2023-02-23T00:22:23;100693.34;;;9.26;71.84
40612;BME280;26317;44.894;20.286;2023-02-23T00:25:10;100686.13;;;9.27;71.63
40612;BME280;26317;44.894;20.286;2023-02-23T00:27:54;100710.22;;;9.27;72.06
40612;BME280;26317;44.894;20.286;2023-02-23T00:30:34;100691.72;;;9.25;72.34
40612;BME280;26317;44.894;20.286;2023-02-23T00:33:19;100698.69;;;9.26;72.26
40612;BME280;26317;44.894;20.286;2023-02-23T00:36:03;100682.31;;;9.17;72.15
40612;BME280;26317;44.894;20.286;2023-02-23T00:38:51;100691.44;;;9.21;72.49
40612;BME280;26317;44.894;20.286;2023-02-23T00:41:42;100700.28;;;9.22;72.42
40612;BME280;26317;44.894;20.286;2023-02-23T00:44:23;100710.97;;;9.22;72.42
40612;BME280;26317;44.894;20.286;2023-02-23T00:47:01;100697.28;;;9.18;72.67
40612;BME280;26317;44.894;20.286;2023-02-23T00:52:20;100688.16;;;9.09;72.45
40612;BME280;26317;44.894;20.286;2023-02-23T00:55:14;100685.19;;;9.06;72.72
40612;BME280;26317;44.894;20.286;2023-02-23T00:57:59;100689.69;;;9.00;72.86
40612;BME280;26317;44.894;20.286;2023-02-23T01:00:44;100676.78;;;8.92;73.00
40612;BME280;26317;44.894;20.286;2023-02-23T01:03:34;100677.53;;;8.88;73.52
40612;BME280;26317;44.894;20.286;2023-02-23T01:06:12;100672.41;;;8.81;73.44
40612;BME280;26317;44.894;20.286;2023-02-23T01:08:58;100679.13;;;8.84;73.40
40612;BME280;26317;44.894;20.286;2023-02-23T01:11:43;100675.00;;;8.71;73.71
40612;BME280;26317;44.894;20.286;2023-02-23T01:14:21;100685.19;;;8.74;73.79
40612;BME280;26317;44.894;20.286;2023-02-23T01:16:55;100688.91;;;8.73;73.79
40612;BME280;26317;44.894;20.286;2023-02-23T01:19:33;100688.03;;;8.62;73.84
40612;BME280;26317;44.894;20.286;2023-02-23T01:22:09;100693.69;;;8.66;73.64
40612;BME280;26317;44.894;20.286;2023-02-23T01:25:01;100693.38;;;8.62;73.74
40612;BME280;26317;44.894;20.286;2023-02-23T01:27:43;100688.53;;;8.59;73.75
40612;BME280;26317;44.894;20.286;2023-02-23T01:30:26;100686.94;;;8.58;74.06
40612;BME280;26317;44.894;20.286;2023-02-23T01:33:06;100682.09;;;8.55;74.33
40612;BME280;26317;44.894;20.286;2023-02-23T01:35:56;100677.53;;;8.56;74.37
40612;BME280;26317;44.894;20.286;2023-02-23T01:38:44;100674.31;;;8.54;74.07
40612;BME280;26317;44.894;20.286;2023-02-23T01:41:32;100643.41;;;8.36;74.10
40612;BME280;26317;44.894;20.286;2023-02-23T01:47:11;100673.56;;;8.58;74.11
40612;BME280;26317;44.894;20.286;2023-02-23T01:49:47;100685.00;;;8.54;74.40
40612;BME280;26317;44.894;20.286;2023-02-23T01:52:29;100669.97;;;8.48;74.49
40612;BME280;26317;44.894;20.286;2023-02-23T01:55:00;100660.75;;;8.34;74.92
40612;BME280;26317;44.894;20.286;2023-02-23T01:57:43;100673.16;;;8.45;74.92
40612;BME280;26317;44.894;20.286;2023-02-23T02:00:25;100671.53;;;8.44;74.94
40612;BME280;26317;44.894;20.286;2023-02-23T02:03:26;100670.13;;;8.36;75.33
40612;BME280;26317;44.894;20.286;2023-02-23T02:06:17;100665.06;;;8.35;75.33
40612;BME280;26317;44.894;20.286;2023-02-23T02:09:06;100681.25;;;8.28;75.30
40612;BME280;26317;44.894;20.286;2023-02-23T02:11:49;100673.50;;;8.26;75.63
40612;BME280;26317;44.894;20.286;2023-02-23T02:14:25;100668.34;;;8.20;76.03
40612;BME280;26317;44.894;20.286;2023-02-23T02:17:38;100674.50;;;8.20;75.79
40612;BME280;26317;44.894;20.286;2023-02-23T02:20:40;100673.09;;;8.13;76.31
40612;BME280;26317;44.894;20.286;2023-02-23T02:27:05;100670.59;;;8.06;76.32
40612;BME280;26317;44.894;20.286;2023-02-23T02:30:35;100681.78;;;8.03;76.51
40612;BME280;26317;44.894;20.286;2023-02-23T02:34:00;100681.41;;;7.95;77.01
40612;BME280;26317;44.894;20.286;2023-02-23T02:37:08;100685.13;;;7.94;77.10
40612;BME280;26317;44.894;20.286;2023-02-23T02:40:23;100681.91;;;7.92;76.70
40612;BME280;26317;44.894;20.286;2023-02-23T02:43:02;100690.22;;;7.95;76.91
40612;BME280;26317;44.894;20.286;2023-02-23T02:45:52;100681.84;;;7.86;77.09
40612;BME280;26317;44.894;20.286;2023-02-23T02:48:35;100689.56;;;7.83;77.40
40612;BME280;26317;44.894;20.286;2023-02-23T02:51:20;100677.69;;;7.74;77.72
40612;BME280;26317;44.894;20.286;2023-02-23T02:54:12;100686.81;;;7.78;78.04
40612;BME280;26317;44.894;20.286;2023-02-23T02:56:52;100674.53;;;7.77;78.25
40612;BME280;26317;44.894;20.286;2023-02-23T02:59:48;100689.25;;;7.79;78.53
40612;BME280;26317;44.894;20.286;2023-02-23T03:02:37;100680.94;;;7.76;78.75
40612;BME280;26317;44.894;20.286;2023-02-23T03:05:23;100678.75;;;7.73;79.21
40612;BME280;26317;44.894;20.286;2023-02-23T03:08:20;100692.91;;;7.73;79.32
40612;BME280;26317;44.894;20.286;2023-02-23T03:11:14;100678.63;;;7.63;79.21
40612;BME280;26317;44.894;20.286;2023-02-23T03:14:22;100692.06;;;7.68;79.08
40612;BME280;26317;44.894;20.286;2023-02-23T03:17:26;100694.56;;;7.58;79.16
40612;BME280;26317;44.894;20.286;2023-02-23T03:20:37;100692.41;;;7.55;79.28
40612;BME280;26317;44.894;20.286;2023-02-23T03:23:38;100692.09;;;7.51;79.53
40612;BME280;26317;44.894;20.286;2023-02-23T03:26:38;100705.44;;;7.51;79.63
40612;BME280;26317;44.894;20.286;2023-02-23T03:29:35;100674.50;;;7.33;79.66
40612;BME280;26317;44.894;20.286;2023-02-23T03:32:42;100706.31;;;7.40;79.88
40612;BME280;26317;44.894;20.286;2023-02-23T03:35:34;100700.38;;;7.33;79.85
40612;BME280;26317;44.894;20.286;2023-02-23T03:38:31;100719.19;;;7.26;80.26
40612;BME280;26317;44.894;20.286;2023-02-23T03:41:27;100710.66;;;7.24;80.38
40612;BME280;26317;44.894;20.286;2023-02-23T03:44:29;100694.75;;;7.13;80.98
40612;BME280;26317;44.894;20.286;2023-02-23T03:47:24;100707.81;;;7.14;81.22
40612;BME280;26317;44.894;20.286;2023-02-23T03:50:14;100709.13;;;7.12;81.53
40612;BME280;26317;44.894;20.286;2023-02-23T03:53:03;100711.56;;;7.13;81.34
40612;BME280;26317;44.894;20.286;2023-02-23T03:55:54;100701.94;;;7.12;81.54
40612;BME280;26317;44.894;20.286;2023-02-23T03:58:54;100672.53;;;6.90;81.62
40612;BME280;26317;44.894;20.286;2023-02-23T04:02:01;100705.25;;;7.03;81.81
40612;BME280;26317;44.894;20.286;2023-02-23T04:04:48;100674.88;;;6.87;82.15
40612;BME280;26317;44.894;20.286;2023-02-23T04:07:40;100704.50;;;6.90;82.96
40612;BME280;26317;44.894;20.286;2023-02-23T04:10:43;100702.84;;;6.84;83.28
40612;BME280;26317;44.894;20.286;2023-02-23T04:13:37;100707.66;;;6.71;84.05
40612;BME280;26317;44.894;20.286;2023-02-23T04:16:08;100703.59;;;6.68;84.35
40612;BME280;26317;44.894;20.286;2023-02-23T04:18:47;100708.59;;;6.65;84.99
40612;BME280;26317;44.894;20.286;2023-02-23T04:21:21;100715.06;;;6.69;85.01
40612;BME280;26317;44.894;20.286;2023-02-23T04:23:56;100713.94;;;6.65;85.08
40612;BME280;26317;44.894;20.286;2023-02-23T04:26:31;100663.16;;;6.26;85.46
40612;BME280;26317;44.894;20.286;2023-02-23T04:29:10;100686.28;;;6.37;85.23
40612;BME280;26317;44.894;20.286;2023-02-23T04:31:56;100718.28;;;6.54;85.46
40612;BME280;26317;44.894;20.286;2023-02-23T04:34:32;100709.16;;;6.50;85.22
40612;BME280;26317;44.894;20.286;2023-02-23T04:37:29;100711.16;;;6.43;85.81
40612;BME280;26317;44.894;20.286;2023-02-23T04:40:19;100712.44;;;6.40;86.25
40612;BME280;26317;44.894;20.286;2023-02-23T04:43:04;100713.25;;;6.41;86.00
40612;BME280;26317;44.894;20.286;2023-02-23T04:45:44;100696.94;;;6.37;85.91
40612;BME280;26317;44.894;20.286;2023-02-23T04:48:25;100711.16;;;6.43;85.68
40612;BME280;26317;44.894;20.286;2023-02-23T04:51:14;100710.69;;;6.46;85.49
40612;BME280;26317;44.894;20.286;2023-02-23T04:53:52;100710.81;;;6.39;86.04
40612;BME280;26317;44.894;20.286;2023-02-23T04:56:36;100707.28;;;6.34;85.99
40612;BME280;26317;44.894;20.286;2023-02-23T04:59:14;100710.81;;;6.39;86.20
40612;BME280;26317;44.894;20.286;2023-02-23T05:01:45;100706.78;;;6.37;85.79
40612;BME280;26317;44.894;20.286;2023-02-23T05:04:27;100688.00;;;6.15;86.09
40612;BME280;26317;44.894;20.286;2023-02-23T05:07:10;100705.00;;;6.26;85.89
40612;BME280;26317;44.894;20.286;2023-02-23T05:09:45;100707.41;;;6.27;86.10
40612;BME280;26317;44.894;20.286;2023-02-23T05:12:28;100706.69;;;6.32;86.10
40612;BME280;26317;44.894;20.286;2023-02-23T05:15:03;100709.34;;;6.32;86.03
40612;BME280;26317;44.894;20.286;2023-02-23T05:17:41;100703.69;;;6.28;86.42
40612;BME280;26317;44.894;20.286;2023-02-23T05:20:26;100702.81;;;6.39;86.40
40612;BME280;26317;44.894;20.286;2023-02-23T05:23:19;100709.56;;;6.42;86.30
40612;BME280;26317;44.894;20.286;2023-02-23T05:25:58;100713.47;;;6.39;86.51
40612;BME280;26317;44.894;20.286;2023-02-23T05:28:39;100711.09;;;6.26;87.31
40612;BME280;26317;44.894;20.286;2023-02-23T05:31:12;100715.97;;;6.29;87.36
40612;BME280;26317;44.894;20.286;2023-02-23T05:33:56;100709.69;;;6.35;86.56
40612;BME280;26317;44.894;20.286;2023-02-23T05:36:32;100718.59;;;6.41;86.64
40612;BME280;26317;44.894;20.286;2023-02-23T05:39:08;100715.00;;;6.35;86.89
40612;BME280;26317;44.894;20.286;2023-02-23T05:41:44;100724.72;;;6.41;86.59
40612;BME280;26317;44.894;20.286;2023-02-23T05:44:24;100722.63;;;6.43;86.85
40612;BME280;26317;44.894;20.286;2023-02-23T05:47:08;100725.63;;;6.47;86.66
40612;BME280;26317;44.894;20.286;2023-02-23T05:49:46;100724.09;;;6.51;86.97
40612;BME280;26317;44.894;20.286;2023-02-23T05:52:44;100724.28;;;6.61;86.92
40612;BME280;26317;44.894;20.286;2023-02-23T05:55:33;100731.88;;;6.69;86.52
40612;BME280;26317;44.894;20.286;2023-02-23T05:58:32;100734.31;;;6.71;86.38
40612;BME280;26317;44.894;20.286;2023-02-23T06:01:08;100731.75;;;6.76;86.20
40612;BME280;26317;44.894;20.286;2023-02-23T06:03:39;100738.59;;;6.72;86.05
40612;BME280;26317;44.894;20.286;2023-02-23T06:06:26;100670.31;;;6.37;86.27
40612;BME280;26317;44.894;20.286;2023-02-23T06:09:03;100733.69;;;6.80;86.16
40612;BME280;26317;44.894;20.286;2023-02-23T06:11:46;100735.13;;;6.71;86.42
40612;BME280;26317;44.894;20.286;2023-02-23T06:14:25;100740.63;;;6.81;86.89
40612;BME280;26317;44.894;20.286;2023-02-23T06:16:57;100742.81;;;6.84;86.96
40612;BME280;26317;44.894;20.286;2023-02-23T06:19:38;100736.59;;;6.79;86.95
40612;BME280;26317;44.894;20.286;2023-02-23T06:22:17;100738.84;;;6.87;86.88
40612;BME280;26317;44.894;20.286;2023-02-23T06:24:51;100744.50;;;6.90;87.44
40612;BME280;26317;44.894;20.286;2023-02-23T06:27:34;100755.66;;;6.87;87.53
40612;BME280;26317;44.894;20.286;2023-02-23T06:30:13;100758.16;;;6.94;87.58
40612;BME280;26317;44.894;20.286;2023-02-23T06:32:49;100760.72;;;6.89;88.17
40612;BME280;26317;44.894;20.286;2023-02-23T06:35:21;100760.81;;;6.94;88.37
40612;BME280;26317;44.894;20.286;2023-02-23T06:37:54;100729.72;;;6.83;88.44
40612;BME280;26317;44.894;20.286;2023-02-23T06:40:36;100739.16;;;6.90;88.54
40612;BME280;26317;44.894;20.286;2023-02-23T06:43:19;100707.97;;;6.74;88.56
40612;BME280;26317;44.894;20.286;2023-02-23T06:45:50;100766.75;;;7.13;88.54
40612;BME280;26317;44.894;20.286;2023-02-23T06:48:30;100764.41;;;7.16;88.32
40612;BME280;26317;44.894;20.286;2023-02-23T06:51:12;100765.84;;;7.24;88.10
40612;BME280;26317;44.894;20.286;2023-02-23T06:53:58;100721.97;;;6.98;88.08
40612;BME280;26317;44.894;20.286;2023-02-23T06:56:37;100751.97;;;7.22;87.33
40612;BME280;26317;44.894;20.286;2023-02-23T06:59:26;100731.41;;;7.22;86.96
40612;BME280;26317;44.894;20.286;2023-02-23T07:02:01;100768.59;;;7.46;86.54
40612;BME280;26317;44.894;20.286;2023-02-23T07:04:46;100749.84;;;7.40;86.38
40612;BME280;26317;44.894;20.286;2023-02-23T07:07:20;100773.59;;;7.59;86.54
40612;BME280;26317;44.894;20.286;2023-02-23T07:10:11;100774.22;;;7.66;86.17
40612;BME280;26317;44.894;20.286;2023-02-23T07:12:46;100774.38;;;7.76;86.23
40612;BME280;26317;44.894;20.286;2023-02-23T07:18:32;100774.66;;;7.96;85.28
40612;BME280;26317;44.894;20.286;2023-02-23T07:21:08;100767.84;;;8.05;85.09
40612;BME280;26317;44.894;20.286;2023-02-23T07:23:41;100782.31;;;8.09;84.48
40612;BME280;26317;44.894;20.286;2023-02-23T07:26:24;100772.91;;;8.07;84.41
40612;BME280;26317;44.894;20.286;2023-02-23T07:29:03;100771.66;;;8.14;83.92
40612;BME280;26317;44.894;20.286;2023-02-23T07:31:54;100775.91;;;8.32;83.83
40612;BME280;26317;44.894;20.286;2023-02-23T07:34:31;100770.44;;;8.44;83.70
40612;BME280;26317;44.894;20.286;2023-02-23T07:37:04;100783.97;;;8.59;83.29
40612;BME280;26317;44.894;20.286;2023-02-23T07:39:45;100775.50;;;8.67;83.06
40612;BME280;26317;44.894;20.286;2023-02-23T07:42:21;100783.63;;;8.77;82.56
40612;BME280;26317;44.894;20.286;2023-02-23T07:45:05;100779.44;;;8.86;81.95
40612;BME280;26317;44.894;20.286;2023-02-23T07:47:51;100784.19;;;9.06;81.81
40612;BME280;26317;44.894;20.286;2023-02-23T07:50:27;100786.16;;;9.20;81.70
40612;BME280;26317;44.894;20.286;2023-02-23T07:53:08;100784.34;;;9.26;80.92
40612;BME280;26317;44.894;20.286;2023-02-23T07:55:48;100776.66;;;9.40;81.31
40612;BME280;26317;44.894;20.286;2023-02-23T07:58:35;100782.63;;;9.52;80.89
40612;BME280;26317;44.894;20.286;2023-02-23T08:01:14;100782.19;;;9.65;80.48
40612;BME280;26317;44.894;20.286;2023-02-23T08:04:01;100775.28;;;9.74;80.03
40612;BME280;26317;44.894;20.286;2023-02-23T08:06:34;100764.59;;;9.74;80.29
40612;BME280;26317;44.894;20.286;2023-02-23T08:09:18;100772.72;;;9.89;80.09
40612;BME280;26317;44.894;20.286;2023-02-23T08:12:08;100785.66;;;10.07;79.49
40612;BME280;26317;44.894;20.286;2023-02-23T08:14:47;100779.00;;;10.15;78.78
40612;BME280;26317;44.894;20.286;2023-02-23T08:17:25;100771.84;;;10.26;78.47
40612;BME280;26317;44.894;20.286;2023-02-23T08:20:04;100744.97;;;10.15;78.33
40612;BME280;26317;44.894;20.286;2023-02-23T08:22:41;100783.72;;;10.55;77.61
40612;BME280;26317;44.894;20.286;2023-02-23T08:25:17;100782.13;;;10.69;76.94
40612;BME280;26317;44.894;20.286;2023-02-23T08:27:52;100769.25;;;10.61;76.42
40612;BME280;26317;44.894;20.286;2023-02-23T08:30:34;100753.72;;;10.68;76.05
40612;BME280;26317;44.894;20.286;2023-02-23T08:33:09;100783.81;;;11.00;75.84
40612;BME280;26317;44.894;20.286;2023-02-23T08:35:58;100783.53;;;11.07;74.86
40612;BME280;26317;44.894;20.286;2023-02-23T08:38:35;100776.56;;;11.06;74.62
40612;BME280;26317;44.894;20.286;2023-02-23T08:41:15;100775.25;;;11.19;74.09
40612;BME280;26317;44.894;20.286;2023-02-23T08:43:51;100767.44;;;11.17;74.71
40612;BME280;26317;44.894;20.286;2023-02-23T08:46:34;100788.91;;;11.47;74.12
40612;BME280;26317;44.894;20.286;2023-02-23T08:49:10;100785.13;;;11.59;73.96
40612;BME280;26317;44.894;20.286;2023-02-23T08:51:58;100791.59;;;11.73;72.17
40612;BME280;26317;44.894;20.286;2023-02-23T08:54:32;100786.44;;;11.86;71.15
40612;BME280;26317;44.894;20.286;2023-02-23T08:57:12;100791.25;;;11.94;70.21
40612;BME280;26317;44.894;20.286;2023-02-23T08:59:55;100792.31;;;12.09;69.87
40612;BME280;26317;44.894;20.286;2023-02-23T09:02:34;100790.66;;;12.23;69.16
40612;BME280;26317;44.894;20.286;2023-02-23T09:05:11;100785.53;;;12.26;68.77
40612;BME280;26317;44.894;20.286;2023-02-23T09:07:54;100797.03;;;12.37;67.32
40612;BME280;26317;44.894;20.286;2023-02-23T09:10:27;100792.13;;;12.44;67.52
40612;BME280;26317;44.894;20.286;2023-02-23T09:13:00;100772.31;;;12.30;67.82
40612;BME280;26317;44.894;20.286;2023-02-23T09:15:54;100796.41;;;12.55;66.47
40612;BME280;26317;44.894;20.286;2023-02-23T09:18:30;100792.06;;;12.64;66.24
40612;BME280;26317;44.894;20.286;2023-02-23T09:21:03;100794.41;;;12.76;65.95
40612;BME280;26317;44.894;20.286;2023-02-23T09:23:47;100799.19;;;12.84;65.40
40612;BME280;26317;44.894;20.286;2023-02-23T09:26:26;100785.94;;;12.98;66.12
40612;BME280;26317;44.894;20.286;2023-02-23T09:29:06;100778.34;;;13.00;64.94
40612;BME280;26317;44.894;20.286;2023-02-23T09:31:43;100785.81;;;13.18;64.56
40612;BME280;26317;44.894;20.286;2023-02-23T09:34:22;100788.72;;;13.21;64.40
40612;BME280;26317;44.894;20.286;2023-02-23T09:37:04;100773.41;;;13.17;64.02
40612;BME280;26317;44.894;20.286;2023-02-23T09:39:43;100770.69;;;13.22;63.84
40612;BME280;26317;44.894;20.286;2023-02-23T09:42:39;100795.75;;;13.51;62.73
40612;BME280;26317;44.894;20.286;2023-02-23T09:45:44;100795.41;;;13.58;63.13
40612;BME280;26317;44.894;20.286;2023-02-23T09:48:23;100785.44;;;13.58;62.46
40612;BME280;26317;44.894;20.286;2023-02-23T09:51:00;100798.59;;;13.65;62.09
40612;BME280;26317;44.894;20.286;2023-02-23T09:53:50;100796.38;;;13.72;61.45
40612;BME280;26317;44.894;20.286;2023-02-23T09:56:36;100801.75;;;13.72;61.10
40612;BME280;26317;44.894;20.286;2023-02-23T09:59:18;100801.13;;;13.80;61.04
40612;BME280;26317;44.894;20.286;2023-02-23T10:01:57;100800.28;;;13.85;60.22
40612;BME280;26317;44.894;20.286;2023-02-23T10:04:38;100807.16;;;13.96;60.54
40612;BME280;26317;44.894;20.286;2023-02-23T10:07:17;100781.59;;;13.93;60.06
40612;BME280;26317;44.894;20.286;2023-02-23T10:10:23;100794.88;;;14.08;57.91
40612;BME280;26317;44.894;20.286;2023-02-23T10:13:15;100791.03;;;14.14;56.08
40612;BME280;26317;44.894;20.286;2023-02-23T10:16:20;100795.31;;;14.15;56.47
40612;BME280;26317;44.894;20.286;2023-02-23T10:18:59;100797.97;;;14.20;57.09
40612;BME280;26317;44.894;20.286;2023-02-23T10:21:40;100793.97;;;14.18;57.12
40612;BME280;26317;44.894;20.286;2023-02-23T10:24:21;100797.97;;;14.20;56.87
40612;BME280;26317;44.894;20.286;2023-02-23T10:26:58;100795.50;;;14.24;56.37
40612;BME280;26317;44.894;20.286;2023-02-23T10:29:48;100768.72;;;14.09;56.03
40612;BME280;26317;44.894;20.286;2023-02-23T10:33:00;100785.47;;;14.29;55.66
40612;BME280;26317;44.894;20.286;2023-02-23T10:35:39;100777.56;;;14.38;55.88
40612;BME280;26317;44.894;20.286;2023-02-23T10:38:24;100783.84;;;14.52;55.05
40612;BME280;26317;44.894;20.286;2023-02-23T10:40:59;100777.66;;;14.52;54.29
40612;BME280;26317;44.894;20.286;2023-02-23T10:43:47;100769.78;;;14.55;54.55
40612;BME280;26317;44.894;20.286;2023-02-23T10:46:39;100774.50;;;14.63;52.66
40612;BME280;26317;44.894;20.286;2023-02-23T10:49:26;100776.56;;;14.71;53.25
40612;BME280;26317;44.894;20.286;2023-02-23T10:52:04;100738.88;;;14.61;52.98
40612;BME280;26317;44.894;20.286;2023-02-23T10:54:55;100768.47;;;14.90;52.11
40612;BME280;26317;44.894;20.286;2023-02-23T10:57:33;100766.47;;;14.96;49.95
40612;BME280;26317;44.894;20.286;2023-02-23T11:00:26;100756.41;;;15.01;50.15
40612;BME280;26317;44.894;20.286;2023-02-23T11:03:34;100737.13;;;14.89;50.83
40612;BME280;26317;44.894;20.286;2023-02-23T11:06:34;100751.41;;;15.08;49.00
40612;BME280;26317;44.894;20.286;2023-02-23T11:09:24;100748.34;;;15.15;47.56
40612;BME280;26317;44.894;20.286;2023-02-23T11:12:17;100737.00;;;15.13;47.97
40612;BME280;26317;44.894;20.286;2023-02-23T11:14:54;100749.47;;;15.28;47.18
40612;BME280;26317;44.894;20.286;2023-02-23T11:17:30;100745.16;;;15.27;48.99
40612;BME280;26317;44.894;20.286;2023-02-23T11:20:24;100730.84;;;15.26;49.88
40612;BME280;26317;44.894;20.286;2023-02-23T11:23:11;100739.81;;;15.40;48.20
40612;BME280;26317;44.894;20.286;2023-02-23T11:25:59;100733.84;;;15.57;48.45
40612;BME280;26317;44.894;20.286;2023-02-23T11:28:34;100719.63;;;15.51;47.00
40612;BME280;26317;44.894;20.286;2023-02-23T11:31:18;100725.41;;;15.58;46.51
40612;BME280;26317;44.894;20.286;2023-02-23T11:33:56;100723.81;;;15.57;47.15
40612;BME280;26317;44.894;20.286;2023-02-23T11:36:47;100722.03;;;15.67;46.71
40612;BME280;26317;44.894;20.286;2023-02-23T11:39:50;100723.13;;;15.65;46.71
40612;BME280;26317;44.894;20.286;2023-02-23T11:42:28;100708.50;;;15.67;46.60
40612;BME280;26317;44.894;20.286;2023-02-23T11:45:18;100718.13;;;15.73;45.43
40612;BME280;26317;44.894;20.286;2023-02-23T11:48:14;100714.81;;;15.76;45.88
40612;BME280;26317;44.894;20.286;2023-02-23T11:50:56;100708.22;;;15.82;46.85
40612;BME280;26317;44.894;20.286;2023-02-23T11:53:38;100712.03;;;15.81;46.13
40612;BME280;26317;44.894;20.286;2023-02-23T11:56:22;100697.09;;;15.83;45.77
40612;BME280;26317;44.894;20.286;2023-02-23T11:59:00;100706.81;;;15.98;45.75
40612;BME280;26317;44.894;20.286;2023-02-23T12:01:39;100689.38;;;15.90;45.46
40612;BME280;26317;44.894;20.286;2023-02-23T12:04:35;100687.78;;;15.89;45.51
40612;BME280;26317;44.894;20.286;2023-02-23T12:07:51;100691.56;;;16.02;46.29
40612;BME280;26317;44.894;20.286;2023-02-23T12:10:44;100675.44;;;15.97;45.99
40612;BME280;26317;44.894;20.286;2023-02-23T12:13:30;100687.72;;;16.17;46.69
40612;BME280;26317;44.894;20.286;2023-02-23T12:16:13;100687.19;;;16.28;45.56
40612;BME280;26317;44.894;20.286;2023-02-23T12:18:56;100662.06;;;16.14;45.18
40612;BME280;26317;44.894;20.286;2023-02-23T12:21:34;100667.88;;;16.21;45.92
40612;BME280;26317;44.894;20.286;2023-02-23T12:24:21;100654.03;;;16.23;45.83
40612;BME280;26317;44.894;20.286;2023-02-23T12:27:10;100677.94;;;16.43;46.28
40612;BME280;26317;44.894;20.286;2023-02-23T12:30:05;100676.28;;;16.55;45.53
40612;BME280;26317;44.894;20.286;2023-02-23T12:32:46;100670.88;;;16.55;45.27
40612;BME280;26317;44.894;20.286;2023-02-23T12:35:36;100673.34;;;16.66;45.35
40612;BME280;26317;44.894;20.286;2023-02-23T12:38:30;100656.50;;;16.69;44.75
40612;BME280;26317;44.894;20.286;2023-02-23T12:41:13;100656.25;;;16.79;45.24
40612;BME280;26317;44.894;20.286;2023-02-23T12:44:11;100647.00;;;16.80;45.05
40612;BME280;26317;44.894;20.286;2023-02-23T12:46:59;100655.19;;;16.88;44.70
40612;BME280;26317;44.894;20.286;2023-02-23T12:49:45;100658.63;;;17.02;44.14
40612;BME280;26317;44.894;20.286;2023-02-23T12:52:33;100640.09;;;16.96;44.25
40612;BME280;26317;44.894;20.286;2023-02-23T12:55:11;100633.41;;;16.93;44.52
40612;BME280;26317;44.894;20.286;2023-02-23T12:57:50;100628.16;;;16.97;45.44
40612;BME280;26317;44.894;20.286;2023-02-23T13:00:48;100642.44;;;17.11;45.13
40612;BME280;26317;44.894;20.286;2023-02-23T13:06:52;100649.34;;;17.26;44.76
40612;BME280;26317;44.894;20.286;2023-02-23T13:09:56;100639.44;;;17.21;45.14
40612;BME280;26317;44.894;20.286;2023-02-23T13:12:41;100641.25;;;17.34;44.83
40612;BME280;26317;44.894;20.286;2023-02-23T13:15:28;100637.25;;;17.32;44.66
40612;BME280;26317;44.894;20.286;2023-02-23T13:18:19;100640.56;;;17.29;44.61
40612;BME280;26317;44.894;20.286;2023-02-23T13:21:03;100621.38;;;17.17;45.34
40612;BME280;26317;44.894;20.286;2023-02-23T13:23:54;100625.44;;;17.28;44.62
40612;BME280;26317;44.894;20.286;2023-02-23T13:26:44;100631.34;;;17.30;45.40
40612;BME280;26317;44.894;20.286;2023-02-23T13:29:31;100635.81;;;17.34;45.03
40612;BME280;26317;44.894;20.286;2023-02-23T13:32:22;100637.44;;;17.35;45.03
40612;BME280;26317;44.894;20.286;2023-02-23T13:35:06;100633.94;;;17.43;44.41
40612;BME280;26317;44.894;20.286;2023-02-23T13:37:41;100612.53;;;17.33;45.15
40612;BME280;26317;44.894;20.286;2023-02-23T13:40:28;100627.91;;;17.55;43.53
40612;BME280;26317;44.894;20.286;2023-02-23T13:43:12;100632.44;;;17.68;43.64
40612;BME280;26317;44.894;20.286;2023-02-23T13:46:16;100629.59;;;17.73;43.24
40612;BME280;26317;44.894;20.286;2023-02-23T13:48:57;100624.81;;;17.79;42.78
40612;BME280;26317;44.894;20.286;2023-02-23T13:51:41;100630.88;;;17.84;43.49
40612;BME280;26317;44.894;20.286;2023-02-23T13:54:23;100622.09;;;17.79;43.65
40612;BME280;26317;44.894;20.286;2023-02-23T13:57:09;100627.34;;;17.75;43.33
40612;BME280;26317;44.894;20.286;2023-02-23T13:59:52;100591.38;;;17.53;43.12
40612;BME280;26317;44.894;20.286;2023-02-23T14:02:54;100616.66;;;17.70;43.48
40612;BME280;26317;44.894;20.286;2023-02-23T14:05:29;100622.41;;;17.69;43.74
40612;BME280;26317;44.894;20.286;2023-02-23T14:08:26;100621.06;;;17.58;44.01
40612;BME280;26317;44.894;20.286;2023-02-23T14:10:58;100628.22;;;17.54;44.95
40612;BME280;26317;44.894;20.286;2023-02-23T14:13:59;100628.84;;;17.51;44.10
40612;BME280;26317;44.894;20.286;2023-02-23T14:16:46;100621.50;;;17.42;44.94
40612;BME280;26317;44.894;20.286;2023-02-23T14:19:37;100625.44;;;17.28;44.87
40612;BME280;26317;44.894;20.286;2023-02-23T14:22:17;100626.69;;;17.22;45.06
40612;BME280;26317;44.894;20.286;2023-02-23T14:28:00;100627.25;;;17.10;45.46
40612;BME280;26317;44.894;20.286;2023-02-23T14:30:44;100626.53;;;16.96;45.36
40612;BME280;26317;44.894;20.286;2023-02-23T14:33:48;100610.50;;;16.77;46.10
40612;BME280;26317;44.894;20.286;2023-02-23T14:36:44;100623.19;;;16.90;46.41